Time;durP1;ratioP1;P1;durP2;ratioP2;P2;SDS_P1;SDS_P2;PMS_P1;PMS_P2;Temp;Humidity;BMP_temperature;BMP_pressure;BME280_temperature;BME280_humidity;BME280_pressure;Samples;Min_cycle;Max_cycle;Signal;HPM_P1;HPM_P2
2021/06/04 05:30:53;;;;;;;12.82;7.97;;;;;;;16.18;63.39;101228.00;1611598;83;25959;-62
2021/06/04 05:33:31;;;;;;;8.85;7.20;;;;;;;16.49;63.34;101229.70;1578118;87;25831;-62
2021/06/04 05:35:56;;;;;;;11.12;7.47;;;;;;;16.77;63.02;101225.16;1609023;87;27429;-61
2021/06/04 05:38:24;;;;;;;9.55;7.58;;;;;;;17.06;62.45;101223.06;1600277;87;26080;-61
2021/06/04 05:40:52;;;;;;;13.00;8.98;;;;;;;17.37;61.97;101226.00;1602845;86;26655;-63
2021/06/04 05:43:24;;;;;;;10.72;7.22;;;;;;;17.72;61.81;101227.91;1606930;87;25834;-62
2021/06/04 05:45:51;;;;;;;10.45;7.25;;;;;;;18.06;61.19;101217.79;1598605;87;26420;-62
2021/06/04 05:48:19;;;;;;;8.65;7.03;;;;;;;18.43;60.04;101223.37;1618831;87;27377;-62
2021/06/04 05:50:50;;;;;;;8.28;5.60;;;;;;;18.81;59.96;101221.46;1589383;87;25823;-62
2021/06/04 05:53:22;;;;;;;10.63;5.85;;;;;;;19.18;59.03;101218.73;1601660;87;25742;-62
2021/06/04 05:55:49;;;;;;;8.23;6.12;;;;;;;19.53;57.10;101223.13;1610250;87;25824;-61
2021/06/04 05:58:19;;;;;;;8.15;6.05;;;;;;;19.86;56.32;101226.23;1600775;87;25729;-62
2021/06/04 06:00:50;;;;;;;8.25;5.95;;;;;;;20.20;55.30;101224.02;1605021;87;27354;-62
2021/06/04 06:03:21;;;;;;;7.15;5.28;;;;;;;20.59;54.75;101222.06;1608619;87;25774;-62
2021/06/04 06:05:58;;;;;;;10.53;4.95;;;;;;;21.01;52.78;101222.88;1604413;87;25849;-63
2021/06/04 06:08:26;;;;;;;6.25;5.53;;;;;;;21.37;52.42;101229.20;1623936;85;26380;-61
2021/06/04 06:10:53;;;;;;;9.70;5.55;;;;;;;21.70;51.09;101234.83;1622209;86;25840;-61
2021/06/04 06:13:22;;;;;;;10.70;5.90;;;;;;;22.04;50.56;101236.48;1611692;87;27338;-62
2021/06/04 06:15:51;;;;;;;7.33;5.60;;;;;;;22.36;50.23;101232.38;1614640;87;25763;-63
2021/06/04 06:18:23;;;;;;;9.25;5.37;;;;;;;22.74;49.44;101231.23;1635040;85;26401;-62
2021/06/04 06:20:50;;;;;;;9.93;5.35;;;;;;;23.15;48.00;101231.48;1633389;85;25676;-61
2021/06/04 06:23:22;;;;;;;13.93;5.83;;;;;;;23.49;48.01;101228.19;1643825;85;25854;-63
2021/06/04 06:25:55;;;;;;;10.20;5.20;;;;;;;23.83;47.36;101228.83;1636565;85;27350;-62
2021/06/04 06:28:26;;;;;;;8.70;5.22;;;;;;;24.17;45.71;101230.18;1635313;86;25418;-63
2021/06/04 06:30:54;;;;;;;8.25;5.10;;;;;;;24.46;45.14;101231.24;1624125;86;25845;-61
2021/06/04 06:33:23;;;;;;;8.30;5.40;;;;;;;24.71;43.95;101225.17;1642403;85;26244;-61
2021/06/04 06:35:55;;;;;;;7.22;4.97;;;;;;;24.90;42.41;101229.05;1631242;85;25780;-63
2021/06/04 06:38:24;;;;;;;8.95;4.85;;;;;;;25.02;42.62;101232.09;1618412;86;27361;-62
2021/06/04 06:40:52;;;;;;;;;;;;;;;25.17;41.73;101231.00;1636721;86;25778;-63
2021/06/04 06:43:21;;;;;;;6.35;4.85;;;;;;;25.34;40.63;101232.91;1637680;85;25967;-63
2021/06/04 06:45:47;;;;;;;6.53;4.70;;;;;;;25.51;40.16;101230.80;1630673;86;25802;-62
2021/06/04 06:48:15;;;;;;;9.15;4.42;;;;;;;25.76;40.23;101230.13;1633470;85;25699;-62
2021/06/04 06:50:42;;;;;;;13.72;4.80;;;;;;;26.02;39.85;101229.03;1652184;85;27033;-61
2021/06/04 06:53:12;;;;;;;12.98;4.53;;;;;;;26.29;39.73;101228.69;1631212;85;26384;-62
2021/06/04 06:55:41;;;;;;;11.12;5.62;;;;;;;26.58;39.37;101229.48;1646559;85;25718;-62
2021/06/04 06:58:10;;;;;;;5.65;4.30;;;;;;;26.88;37.99;101233.05;1638041;85;26167;-63
2021/06/04 07:00:42;;;;;;;7.67;3.85;;;;;;;27.10;37.52;101236.58;1640988;85;25681;-62
2021/06/04 07:03:13;;;;;;;6.35;3.95;;;;;;;27.36;36.65;101231.17;1638402;86;28517;-62
2021/06/04 07:05:42;;;;;;;10.60;4.00;;;;;;;27.64;36.24;101232.27;1651825;85;25771;-65
2021/06/04 07:08:11;;;;;;;9.28;4.58;;;;;;;27.90;35.95;101229.55;1642574;85;25719;-66
2021/06/04 07:10:43;;;;;;;6.42;3.33;;;;;;;28.08;34.92;101228.88;1647388;85;26734;-63
2021/06/04 07:13:13;;;;;;;7.03;4.10;;;;;;;28.09;34.28;101228.27;1645567;85;25668;-63
2021/06/04 07:15:41;;;;;;;4.70;3.47;;;;;;;28.19;33.95;101228.79;1646649;85;27573;-60
2021/06/04 07:18:09;;;;;;;7.20;3.70;;;;;;;28.33;33.26;101230.67;1603457;85;26103;-60
2021/06/04 07:20:38;;;;;;;7.15;4.12;;;;;;;28.48;33.25;101229.97;1647807;85;25886;-60
2021/06/04 07:23:09;;;;;;;6.83;4.05;;;;;;;28.69;33.08;101231.22;1640714;85;25885;-61
2021/06/04 07:25:39;;;;;;;4.30;3.70;;;;;;;28.97;32.89;101236.31;1632231;85;25630;-61
2021/06/04 07:28:08;;;;;;;6.83;3.50;;;;;;;29.29;32.16;101228.24;1617630;86;27952;-60
2021/06/04 07:30:38;;;;;;;;;;;;;;;29.55;31.87;101235.69;1640929;85;25856;-63
2021/06/04 07:33:10;;;;;;;6.83;3.35;;;;;;;29.80;30.83;101232.00;1607925;85;26073;-63
2021/06/04 07:35:38;;;;;;;5.03;3.52;;;;;;;30.06;30.90;101235.21;1638370;85;26072;-63
2021/06/04 07:38:06;;;;;;;5.15;3.50;;;;;;;30.32;29.78;101235.62;1636128;85;25785;-63
2021/06/04 07:40:36;;;;;;;8.68;3.62;;;;;;;30.43;29.85;101230.69;1618516;86;27339;-63
2021/06/04 07:43:07;;;;;;;4.05;3.37;;;;;;;30.68;29.79;101235.86;1601916;87;25926;-63
2021/06/04 07:45:37;;;;;;;5.92;3.60;;;;;;;31.00;29.34;101237.28;1599057;87;25732;-61
2021/06/04 07:48:07;;;;;;;5.12;3.10;;;;;;;31.23;29.05;101234.27;1587687;88;26549;-63
2021/06/04 07:50:34;;;;;;;6.65;3.30;;;;;;;31.32;27.95;101235.09;1571772;89;25761;-63
2021/06/04 07:53:01;;;;;;;6.78;3.05;;;;;;;31.39;28.25;101237.13;1577254;89;28269;-63
2021/06/04 07:55:28;;;;;;;4.78;3.58;;;;;;;31.58;28.11;101239.74;1566634;89;26438;-63
2021/06/04 07:57:55;;;;;;;3.70;2.98;;;;;;;31.88;28.21;101239.31;1578404;88;25860;-64
2021/06/04 08:00:26;;;;;;;6.60;3.08;;;;;;;32.23;27.64;101241.11;1583109;88;25825;-66
2021/06/04 08:02:56;;;;;;;9.85;6.08;;;;;;;32.51;26.75;101234.03;1573750;88;25810;-64
2021/06/04 08:05:23;;;;;;;5.80;3.35;;;;;;;32.71;26.21;101233.15;1581841;88;27339;-69
2021/06/04 08:07:50;;;;;;;4.78;2.70;;;;;;;32.96;25.58;101236.69;1580822;88;25636;-67
2021/06/04 08:10:18;;;;;;;8.25;2.90;;;;;;;32.99;24.78;101229.42;1578622;88;25881;-69
2021/06/04 08:12:45;;;;;;;3.62;2.37;;;;;;;33.15;24.78;101225.80;1585792;88;26163;-67
2021/06/04 08:15:20;;;;;;;2.95;2.00;;;;;;;33.31;24.28;101222.95;1574973;89;25740;-68
2021/06/04 08:17:48;;;;;;;2.40;2.17;;;;;;;33.52;23.91;101221.52;1572185;88;27387;-68
2021/06/04 08:20:22;;;;;;;4.58;2.55;;;;;;;33.81;23.58;101241.72;1587729;89;25675;-68
2021/06/04 08:22:49;;;;;;;3.50;2.80;;;;;;;33.80;23.39;101226.11;1576307;88;26074;-69
2021/06/04 08:25:18;;;;;;;4.62;2.17;;;;;;;33.95;22.22;101218.03;1571341;88;33089;-68
2021/06/04 08:27:44;;;;;;;2.80;2.55;;;;;;;33.93;22.55;101210.69;1577209;88;25694;-69
2021/06/04 08:30:14;;;;;;;3.40;2.37;;;;;;;34.00;21.67;101216.06;1592976;88;27415;-69
2021/06/04 08:32:42;;;;;;;3.10;2.45;;;;;;;33.70;21.71;101211.20;1585245;88;25770;-65
2021/06/04 08:35:12;;;;;;;3.50;2.13;;;;;;;33.26;21.26;101209.48;1583232;89;25802;-68
2021/06/04 08:37:41;;;;;;;4.83;2.50;;;;;;;32.93;21.64;101207.55;1571631;88;26230;-65
2021/06/04 08:40:14;;;;;;;5.42;2.87;;;;;;;33.24;22.44;101204.94;1585483;88;25769;-65
2021/06/04 08:43:24;;;;;;;4.17;2.50;;;;;;;33.24;22.44;101204.94;1592326;88;27443;-69
2021/06/04 08:46:20;;;;;;;4.75;2.10;;;;;;;33.75;22.56;101216.84;1586522;89;25870;-69
2021/06/04 08:49:04;;;;;;;3.22;2.52;;;;;;;34.32;21.94;101201.00;1581018;88;25701;-70
2021/06/04 08:51:45;;;;;;;4.12;2.35;;;;;;;34.84;21.22;101219.12;1587944;88;25748;-70
2021/06/04 08:54:52;;;;;;;5.95;2.35;;;;;;;34.30;20.77;101201.30;1589708;88;25784;-69
2021/06/04 08:57:42;;;;;;;7.12;2.83;;;;;;;33.11;20.84;101192.25;1562671;89;27408;-70
2021/06/04 09:00:25;;;;;;;4.75;2.60;;;;;;;33.11;20.84;101192.25;1579767;90;25763;-70
2021/06/04 09:03:04;;;;;;;6.40;2.83;;;;;;;32.50;21.58;101190.45;1559742;90;25764;-70
2021/06/04 09:05:54;;;;;;;5.83;2.80;;;;;;;32.07;22.03;101190.14;1564710;90;25827;-70
2021/06/04 09:08:26;;;;;;;7.58;3.00;;;;;;;31.64;22.44;101184.91;1565643;90;25770;-72
2021/06/04 09:11:01;;;;;;;3.87;2.90;;;;;;;31.23;22.91;101191.75;1534118;91;28026;-72
2021/06/04 09:13:35;;;;;;;5.00;2.98;;;;;;;30.84;23.19;101178.53;1577154;89;27219;-70
2021/06/04 09:16:16;;;;;;;3.65;2.80;;;;;;;30.53;23.41;101185.67;1572876;90;25896;-72
2021/06/04 09:18:57;;;;;;;5.70;2.92;;;;;;;30.23;23.81;101183.77;1523258;92;25989;-66
2021/06/04 09:21:34;;;;;;;5.15;2.87;;;;;;;29.96;24.01;101181.17;1537703;92;25925;-65
2021/06/04 09:24:07;;;;;;;3.70;2.90;;;;;;;29.69;24.14;101169.98;1527151;92;27358;-62
2021/06/04 09:26:34;;;;;;;7.80;3.08;;;;;;;29.47;24.43;101170.89;1525474;90;25936;-65
2021/06/04 09:29:08;;;;;;;4.25;3.08;;;;;;;29.31;24.68;101172.89;1556835;90;25757;-69
2021/06/04 09:31:57;;;;;;;5.97;2.92;;;;;;;29.17;24.94;101166.90;1537151;91;26167;-63
2021/06/04 09:34:33;;;;;;;6.22;3.20;;;;;;;28.99;25.08;101164.28;1538848;91;25808;-63
2021/06/04 09:37:23;;;;;;;9.75;3.35;;;;;;;28.83;25.03;101161.30;1527286;91;28563;-50
2021/06/04 09:39:53;;;;;;;6.35;3.35;;;;;;;28.87;25.46;101162.04;1534940;91;25898;-51
2021/06/04 09:42:27;;;;;;;4.28;3.02;;;;;;;28.81;25.67;101161.71;1539766;90;26096;-51
2021/06/04 09:45:14;;;;;;;9.18;3.20;;;;;;;28.72;25.93;101163.39;1539420;91;26105;-50
2021/06/04 09:48:04;;;;;;;6.12;3.02;;;;;;;28.69;26.31;101158.85;1528154;91;25889;-51
2021/06/04 09:50:42;;;;;;;4.35;2.60;;;;;;;29.41;26.29;101147.50;1535168;91;27561;-51
2021/06/04 09:53:23;;;;;;;3.40;2.95;;;;;;;30.05;25.75;101157.54;1549692;90;25800;-49
2021/06/04 09:56:10;;;;;;;4.87;2.00;;;;;;;30.83;25.01;101156.00;1564790;88;25609;-49
2021/06/04 09:58:59;;;;;;;4.33;1.90;;;;;;;31.36;23.22;101140.16;1615815;87;25838;-48
2021/06/04 10:01:30;;;;;;;2.47;2.20;;;;;;;31.50;22.12;101150.84;1583063;88;25734;-48
2021/06/04 10:04:06;;;;;;;2.83;2.47;;;;;;;31.38;21.72;101148.11;1584790;88;27295;-48
2021/06/04 10:06:46;;;;;;;3.98;2.00;;;;;;;31.35;20.69;101151.18;1580674;89;25780;-52
2021/06/04 10:09:37;;;;;;;7.22;2.45;;;;;;;30.83;21.74;101165.77;1578617;88;25703;-49
2021/06/04 10:12:09;;;;;;;5.08;2.22;;;;;;;30.48;21.60;101159.03;1626271;86;25777;-49
2021/06/04 10:14:49;;;;;;;5.12;2.30;;;;;;;30.75;21.89;101160.95;1637367;85;26640;-49
2021/06/04 10:20:31;;;;;;;6.28;2.92;;;;;;;30.57;21.35;101157.70;1621961;87;25886;-59
2021/06/04 10:23:15;;;;;;;5.15;2.30;;;;;;;30.30;21.87;101152.95;1562092;90;25896;-56
2021/06/04 10:25:53;;;;;;;2.37;2.10;;;;;;;30.59;22.92;101156.66;1560340;90;26072;-62
2021/06/04 10:28:48;;;;;;;2.62;2.27;;;;;;;30.84;22.96;101157.59;1539064;91;25778;-61
2021/06/04 10:31:23;;;;;;;3.50;2.45;;;;;;;31.23;23.41;101145.64;1549185;91;27530;-61
2021/06/04 10:34:16;;;;;;;3.83;2.50;;;;;;;31.87;22.24;101152.41;1552770;91;26640;-61
2021/06/04 10:36:47;;;;;;;2.90;2.60;;;;;;;31.99;21.94;101138.34;1546965;91;25851;-60
2021/06/04 10:39:22;;;;;;;2.90;2.02;;;;;;;32.19;21.96;101135.48;1552797;91;25848;-59
2021/06/04 10:42:03;;;;;;;6.55;2.35;;;;;;;32.56;22.75;101129.91;1539977;91;26514;-60
2021/06/04 10:44:50;;;;;;;6.35;2.80;;;;;;;32.98;22.11;101133.98;1547523;91;28167;-59
2021/06/04 10:47:33;;;;;;;4.92;2.83;;;;;;;33.44;22.26;101125.63;1508780;94;26149;-59
2021/06/04 10:50:25;;;;;;;6.10;2.80;;;;;;;33.87;22.58;101125.68;1504889;93;25843;-59
2021/06/04 10:53:24;;;;;;;6.72;2.33;;;;;;;34.17;21.17;101124.09;1506218;93;26673;-58
2021/06/04 10:56:08;;;;;;;4.22;2.33;;;;;;;34.45;21.42;101130.78;1503963;93;26506;-58
2021/06/04 10:59:02;;;;;;;6.08;2.65;;;;;;;34.26;21.30;101116.41;1509220;93;29539;-58
2021/06/04 11:01:37;;;;;;;5.95;2.52;;;;;;;32.97;20.75;101116.40;1563532;89;25996;-58
2021/06/04 11:04:21;;;;;;;4.00;2.70;;;;;;;32.97;20.75;101116.40;1554079;90;26051;-58
2021/06/04 11:07:29;;;;;;;3.90;2.58;;;;;;;32.32;21.18;101113.18;1533658;91;26531;-57
2021/06/04 11:10:02;;;;;;;;;;;;;;;31.76;21.40;101105.77;1529051;92;25860;-57
2021/06/04 11:12:48;;;;;;;5.30;2.47;;;;;;;31.25;22.21;101112.45;1529478;92;27311;-57
2021/06/04 11:15:23;;;;;;;5.03;2.77;;;;;;;30.90;21.96;101111.98;1527867;92;26427;-57
2021/06/04 11:18:03;;;;;;;3.77;2.60;;;;;;;30.48;21.96;101123.38;1534431;93;26197;-59
2021/06/04 11:20:52;;;;;;;4.60;3.30;;;;;;;30.16;22.80;101112.14;1529206;93;25864;-58
2021/06/04 11:23:27;;;;;;;4.35;3.22;;;;;;;29.85;23.36;101112.83;1536146;90;25893;-58
2021/06/04 11:26:12;;;;;;;5.05;3.20;;;;;;;29.41;23.42;101113.45;1562346;89;27373;-59
2021/06/04 11:28:48;;;;;;;5.42;2.85;;;;;;;28.97;23.97;101109.62;1556669;90;25787;-58
2021/06/04 11:31:43;;;;;;;6.75;3.47;;;;;;;28.60;24.63;101110.44;1554315;90;25877;-59
2021/06/04 11:34:15;;;;;;;3.60;2.85;;;;;;;28.30;24.10;101108.52;1557799;90;26705;-57
2021/06/04 11:36:45;;;;;;;4.30;2.80;;;;;;;28.06;24.65;101101.98;1536750;90;25774;-59
2021/06/04 11:39:33;;;;;;;6.10;3.00;;;;;;;27.99;24.58;101102.02;1553038;90;27962;-60
2021/06/04 11:42:10;;;;;;;3.22;2.87;;;;;;;27.94;24.86;101100.49;1551513;90;26133;-58
2021/06/04 11:44:54;;;;;;;4.05;3.15;;;;;;;27.87;25.09;101101.10;1614989;86;27163;-57
2021/06/04 11:47:26;;;;;;;6.22;2.98;;;;;;;27.79;26.14;101094.82;1608307;86;25802;-59
2021/06/04 11:50:06;;;;;;;4.37;3.22;;;;;;;27.68;25.78;101093.48;1629003;85;25988;-60
2021/06/04 11:52:45;;;;;;;3.45;3.15;;;;;;;27.68;25.91;101090.71;1645916;85;28048;-60
2021/06/04 11:55:26;;;;;;;4.05;2.80;;;;;;;27.68;25.74;101091.31;1622827;85;25809;-60
2021/06/04 11:58:03;;;;;;;6.70;2.90;;;;;;;27.63;25.94;101097.30;1623042;87;25742;-60
2021/06/04 12:00:58;;;;;;;7.90;2.87;;;;;;;27.56;26.24;101092.59;1593325;87;25843;-60
2021/06/04 12:03:27;;;;;;;3.87;2.85;;;;;;;27.54;26.20;101092.98;1623789;85;25948;-60
2021/06/04 12:05:58;;;;;;;4.65;2.70;;;;;;;27.53;25.77;101093.39;1613509;86;27380;-59
2021/06/04 12:08:30;;;;;;;3.45;2.65;;;;;;;27.48;25.79;101087.69;1626243;86;25911;-60
2021/06/04 12:11:03;;;;;;;6.33;2.92;;;;;;;27.39;26.11;101083.95;1606959;87;26026;-60
2021/06/04 12:13:35;;;;;;;3.85;2.92;;;;;;;27.35;26.08;101082.41;1600926;87;27773;-60
2021/06/04 12:16:29;;;;;;;5.60;2.90;;;;;;;27.28;26.03;101083.81;1622552;86;26671;-58
2021/06/04 12:19:34;;;;;;;5.62;3.00;;;;;;;27.29;26.12;101086.80;1599622;87;27358;-59
2021/06/04 12:22:24;;;;;;;3.55;2.95;;;;;;;27.35;26.44;101082.41;1613795;86;25841;-58
2021/06/04 12:24:55;;;;;;;7.90;2.72;;;;;;;27.58;26.49;101074.91;1619480;86;25839;-58
2021/06/04 12:27:33;;;;;;;4.45;2.80;;;;;;;28.20;27.02;101075.25;1610174;86;26245;-57
2021/06/04 12:30:00;;;;;;;5.95;3.12;;;;;;;28.80;26.06;101071.66;1602457;87;25784;-58
2021/06/04 12:32:34;;;;;;;6.03;3.15;;;;;;;29.50;25.56;101073.13;1643594;85;27924;-58
2021/06/04 12:35:03;;;;;;;7.62;3.15;;;;;;;30.00;24.56;101068.16;1635592;85;25712;-59
2021/06/04 12:37:42;;;;;;;2.92;2.47;;;;;;;30.36;24.29;101068.97;1609374;87;26253;-59
2021/06/04 12:40:26;;;;;;;5.08;3.12;;;;;;;30.74;24.03;101056.06;1633140;86;26485;-59
2021/06/04 12:43:28;;;;;;;7.00;3.15;;;;;;;30.66;23.08;101065.80;1635653;85;26368;-58
2021/06/04 12:46:08;;;;;;;3.00;2.67;;;;;;;30.37;22.95;101057.19;1637022;85;27335;-58
2021/06/04 12:48:41;;;;;;;4.08;2.60;;;;;;;30.50;22.92;101057.52;1607686;86;25973;-57
2021/06/04 12:51:17;;;;;;;5.22;2.80;;;;;;;30.45;23.09;101053.84;1629364;86;25791;-59
2021/06/04 12:53:48;;;;;;;4.17;2.90;;;;;;;30.54;23.22;101053.27;1628675;86;26445;-57
2021/06/04 12:56:22;;;;;;;5.15;2.90;;;;;;;30.52;23.06;101049.50;1610522;86;25694;-57
2021/06/04 12:59:00;;;;;;;4.55;3.00;;;;;;;30.39;22.51;101044.38;1583983;88;28044;-58
2021/06/04 13:01:29;;;;;;;7.70;3.08;;;;;;;30.24;23.02;101054.20;1580821;88;26357;-57
2021/06/04 13:04:01;;;;;;;3.52;2.75;;;;;;;30.17;22.90;101053.72;1584499;88;25899;-57
2021/06/04 13:06:47;;;;;;;7.05;2.83;;;;;;;30.06;23.05;101045.55;1577313;88;26444;-58
2021/06/04 13:09:38;;;;;;;5.70;3.00;;;;;;;29.94;23.02;101041.99;1587218;88;25969;-57
2021/06/04 13:12:22;;;;;;;6.62;3.00;;;;;;;29.78;23.26;101046.23;1532429;91;27420;-58
2021/06/04 13:14:52;;;;;;;31.87;4.90;;;;;;;29.63;23.48;101046.26;1535071;90;26124;-57
2021/06/04 13:17:30;;;;;;;16.50;4.33;;;;;;;29.49;23.57;101052.04;1553868;90;26223;-57
2021/06/04 13:20:20;;;;;;;8.13;3.55;;;;;;;29.38;23.72;101046.03;1555621;90;26245;-58
2021/06/04 13:22:50;;;;;;;6.83;3.20;;;;;;;29.28;23.88;101044.80;1558131;90;25804;-58
2021/06/04 13:25:27;;;;;;;7.50;3.70;;;;;;;29.18;23.87;101040.95;1534946;90;27404;-55
2021/06/04 13:28:07;;;;;;;5.78;3.10;;;;;;;29.11;24.00;101039.02;1557397;90;25739;-59
2021/06/04 13:30:37;;;;;;;5.28;3.05;;;;;;;29.08;24.20;101037.07;1548181;90;26633;-58
2021/06/04 13:33:05;;;;;;;7.30;3.85;;;;;;;29.02;24.31;101041.55;1556542;90;25906;-58
2021/06/04 13:35:40;;;;;;;6.05;3.40;;;;;;;28.96;24.47;101035.66;1554020;90;25968;-59
2021/06/04 13:42:00;;;;;;;8.80;3.15;;;;;;;28.84;24.55;101034.23;1553700;89;26141;-58
2021/06/04 13:44:30;;;;;;;18.00;3.55;;;;;;;28.59;24.97;101026.76;1553708;90;26651;-58
2021/06/04 13:47:05;;;;;;;6.60;3.10;;;;;;;28.51;24.81;101025.43;1557601;89;25750;-59
2021/06/04 13:49:46;;;;;;;6.83;3.15;;;;;;;28.44;24.88;101023.34;1602249;87;25818;-58
2021/06/04 13:52:18;;;;;;;7.60;3.15;;;;;;;28.37;25.13;101022.05;1621325;87;27301;-61
2021/06/04 13:54:50;;;;;;;5.22;2.42;;;;;;;28.29;25.43;101030.44;1616042;86;25692;-61
2021/06/04 13:57:36;;;;;;;5.33;3.00;;;;;;;28.21;25.76;101022.59;1625426;86;25978;-58
2021/06/04 14:00:31;;;;;;;4.62;2.80;;;;;;;28.16;26.09;101025.20;1642319;85;26604;-59
2021/06/04 14:03:20;;;;;;;3.58;2.67;;;;;;;28.10;26.41;101026.27;1566873;89;25794;-59
2021/06/04 14:06:15;;;;;;;7.95;3.27;;;;;;;28.08;26.12;101022.33;1570168;89;27942;-59
2021/06/04 14:08:59;;;;;;;6.22;2.83;;;;;;;28.08;26.08;101018.16;1561536;88;26598;-58
2021/06/04 14:11:26;;;;;;;3.87;2.60;;;;;;;28.09;25.83;101014.97;1567136;88;26450;-59
2021/06/04 14:13:58;;;;;;;3.95;2.90;;;;;;;28.07;25.69;101017.96;1563351;90;25820;-59
2021/06/04 14:16:42;;;;;;;3.65;3.10;;;;;;;28.05;25.37;101010.03;1572512;88;26039;-58
2021/06/04 14:19:35;;;;;;;7.50;3.12;;;;;;;28.04;25.48;101014.00;1553783;90;27386;-59
2021/06/04 14:22:09;;;;;;;3.62;2.85;;;;;;;28.01;25.27;101009.87;1571058;88;25792;-58
2021/06/04 14:24:41;;;;;;;5.58;3.30;;;;;;;28.03;25.37;101011.66;1545962;90;26823;-58
2021/06/04 14:27:28;;;;;;;5.05;3.22;;;;;;;28.17;25.05;101011.50;1550169;90;25853;-60
2021/06/04 14:30:08;;;;;;;2.90;2.67;;;;;;;28.29;24.89;101005.41;1573912;88;26079;-59
2021/06/04 14:32:37;;;;;;;3.10;2.62;;;;;;;28.33;24.39;101010.92;1584147;88;27766;-59
2021/06/04 14:35:17;;;;;;;5.08;2.70;;;;;;;28.44;24.14;101006.66;1587447;88;25911;-60
2021/06/04 14:38:00;;;;;;;4.30;3.00;;;;;;;28.51;24.40;101007.34;1552211;88;25850;-58
2021/06/04 14:40:34;;;;;;;2.87;2.60;;;;;;;28.67;24.36;101002.63;1617841;85;25747;-59
2021/06/04 14:43:05;;;;;;;3.80;2.72;;;;;;;28.90;23.75;101001.13;1642437;86;26027;-61
2021/06/04 14:45:32;;;;;;;4.70;2.90;;;;;;;29.09;23.81;100989.92;1626664;85;27321;-59
2021/06/04 14:48:05;;;;;;;5.37;3.25;;;;;;;29.32;23.72;100991.20;1617215;86;25820;-58
2021/06/04 14:50:34;;;;;;;6.90;2.70;;;;;;;29.46;23.17;100993.78;1619680;86;26470;-59
2021/06/04 14:53:05;;;;;;;5.42;2.70;;;;;;;29.40;23.24;100986.48;1617719;87;26200;-57
2021/06/04 14:55:34;;;;;;;4.10;3.50;;;;;;;29.24;23.37;100992.70;1607572;87;26075;-58
2021/06/04 14:58:03;;;;;;;6.92;2.70;;;;;;;29.22;23.40;100991.57;1626496;85;27649;-58
2021/06/04 15:00:30;;;;;;;4.10;2.47;;;;;;;29.25;23.09;100985.13;1613524;86;35117;-58
2021/06/04 15:02:57;;;;;;;4.80;2.60;;;;;;;29.31;23.31;100981.28;1617251;86;26364;-58
2021/06/04 15:05:28;;;;;;;3.77;2.70;;;;;;;29.30;22.86;100979.08;1631402;85;25785;-60
2021/06/04 15:07:56;;;;;;;6.95;3.20;;;;;;;29.26;22.95;100978.36;1638481;85;25879;-58
2021/06/04 15:10:24;;;;;;;4.10;3.20;;;;;;;29.34;23.18;100977.05;1630378;85;27332;-58
2021/06/04 15:12:51;;;;;;;7.15;2.83;;;;;;;29.47;23.13;100970.26;1627975;85;26258;-58
2021/06/04 15:15:23;;;;;;;4.10;2.65;;;;;;;29.56;23.18;100970.52;1634347;85;26370;-59
2021/06/04 15:17:52;;;;;;;3.22;2.83;;;;;;;29.60;22.82;100976.03;1609854;85;25864;-59
2021/06/04 15:20:20;;;;;;;3.98;2.65;;;;;;;29.47;22.54;100972.27;1637781;85;25726;-59
2021/06/04 15:22:47;;;;;;;2.72;2.50;;;;;;;29.18;22.12;100964.36;1646413;85;28351;-58
2021/06/04 15:25:16;;;;;;;5.67;2.70;;;;;;;28.85;22.56;100959.23;1640576;85;25767;-58
2021/06/04 15:27:46;;;;;;;3.67;2.90;;;;;;;28.65;22.73;100959.09;1625969;86;25842;-58
2021/06/04 15:30:15;;;;;;;5.08;3.65;;;;;;;28.43;23.00;100957.77;1627569;86;26333;-58
2021/06/04 15:32:42;;;;;;;4.03;3.05;;;;;;;28.24;23.22;100953.02;1610042;86;25732;-58
2021/06/04 15:35:11;;;;;;;4.25;2.90;;;;;;;28.11;23.03;100956.14;1626537;85;27324;-58
2021/06/04 15:37:38;;;;;;;7.50;2.90;;;;;;;27.97;23.38;100955.70;1602257;86;25904;-58
2021/06/04 15:40:08;;;;;;;3.72;2.77;;;;;;;27.97;23.94;100952.14;1602014;87;25933;-58
2021/06/04 15:42:35;;;;;;;12.03;3.45;;;;;;;27.98;24.00;100953.73;1625395;85;26181;-57
2021/06/04 15:45:05;;;;;;;3.15;2.85;;;;;;;27.94;23.69;100953.16;1618713;85;26061;-57
2021/06/04 15:47:33;;;;;;;3.20;2.90;;;;;;;27.91;23.70;100949.00;1641802;85;27455;-57
2021/06/04 15:49:59;;;;;;;4.92;2.58;;;;;;;27.92;23.80;100946.41;1620132;87;25682;-57
2021/06/04 15:52:26;;;;;;;7.72;3.12;;;;;;;27.92;24.00;100940.86;1632969;85;25946;-58
2021/06/04 15:54:52;;;;;;;5.08;2.72;;;;;;;27.94;24.39;100942.03;1640317;85;27866;-58
2021/06/04 15:57:20;;;;;;;3.40;2.70;;;;;;;27.99;24.65;100942.16;1608943;87;25843;-57
2021/06/04 15:59:48;;;;;;;4.13;2.77;;;;;;;28.07;24.49;100934.55;1623465;86;27337;-57
2021/06/04 16:02:21;;;;;;;5.85;2.87;;;;;;;28.10;24.47;100937.90;1609427;86;25891;-58
2021/06/04 16:04:48;;;;;;;4.28;3.05;;;;;;;28.10;24.64;100929.55;1612936;86;25991;-58
2021/06/04 16:07:16;;;;;;;6.62;2.77;;;;;;;28.08;24.74;100931.97;1622144;87;26162;-58
2021/06/04 16:09:46;;;;;;;6.63;3.10;;;;;;;28.05;24.65;100932.18;1630911;85;26102;-58
2021/06/04 16:12:16;;;;;;;4.20;3.02;;;;;;;28.00;24.55;100937.42;1626896;85;27358;-59
2021/06/04 16:14:44;;;;;;;7.78;3.20;;;;;;;27.86;24.52;100936.33;1612661;86;25895;-59
2021/06/04 16:17:17;;;;;;;9.18;2.70;;;;;;;27.73;24.63;100930.48;1614466;86;25834;-59
2021/06/04 16:19:44;;;;;;;3.20;2.90;;;;;;;27.59;24.70;100936.19;1594482;87;26582;-58
2021/06/04 16:22:14;;;;;;;4.53;3.33;;;;;;;27.45;24.93;100937.11;1622182;87;25792;-59
2021/06/04 16:24:43;;;;;;;5.17;3.90;;;;;;;27.30;25.11;100936.43;1604116;88;27887;-58
2021/06/04 16:27:12;;;;;;;4.35;3.25;;;;;;;27.16;25.59;100933.73;1559681;90;25932;-58
2021/06/04 16:29:39;;;;;;;4.25;3.15;;;;;;;27.04;26.08;100933.62;1580721;90;25908;-58
2021/06/04 16:32:07;;;;;;;4.58;3.08;;;;;;;26.92;26.24;100936.85;1579875;90;25800;-57
2021/06/04 16:34:37;;;;;;;11.50;3.85;;;;;;;26.80;26.64;100933.37;1618679;85;25954;-57
2021/06/04 16:37:09;;;;;;;36.15;4.35;;;;;;;26.72;27.04;100928.27;1629951;87;28131;-58
2021/06/04 16:39:36;;;;;;;17.87;3.77;;;;;;;26.66;27.52;100925.11;1599602;87;25806;-58
2021/06/04 16:42:05;;;;;;;9.95;3.15;;;;;;;26.62;27.75;100932.06;1593227;88;26278;-58
2021/06/04 16:44:31;;;;;;;7.87;3.65;;;;;;;26.62;27.96;100929.87;1605486;87;26101;-58
2021/06/04 16:46:58;;;;;;;11.28;3.50;;;;;;;26.61;28.04;100929.66;1630730;85;25825;-58
2021/06/04 16:49:24;;;;;;;6.72;4.10;;;;;;;26.62;28.14;100932.06;1627290;86;28035;-57
2021/06/04 16:51:52;;;;;;;8.15;4.72;;;;;;;26.62;27.99;100925.13;1650530;84;25671;-58
2021/06/04 16:54:19;;;;;;;6.40;4.22;;;;;;;26.61;28.07;100921.34;1637222;85;25899;-58
2021/06/04 16:56:46;;;;;;;7.75;5.20;;;;;;;26.60;27.79;100918.39;1618837;87;26296;-58
2021/06/04 16:59:12;;;;;;;11.53;9.33;;;;;;;26.57;28.07;100922.75;1650751;84;25871;-58
2021/06/04 17:01:42;;;;;;;10.43;6.45;;;;;;;26.51;28.16;100913.28;1639692;85;27982;-57
2021/06/04 17:04:08;;;;;;;;;;;;;;;26.43;28.23;100906.19;1636946;85;26525;-58
2021/06/04 17:06:35;;;;;;;7.83;3.92;;;;;;;26.35;28.36;100911.56;1626602;85;26000;-58
2021/06/04 17:09:02;;;;;;;7.95;4.37;;;;;;;26.22;28.49;100910.63;1612109;87;26612;-58
2021/06/04 17:11:28;;;;;;;7.42;4.17;;;;;;;26.12;28.83;100905.11;1608427;86;26461;-58
2021/06/04 17:13:56;;;;;;;4.30;3.90;;;;;;;26.02;29.09;100910.30;1612913;87;27350;-51
2021/06/04 17:16:22;;;;;;;9.10;4.60;;;;;;;25.89;29.16;100910.48;1624310;84;25861;-52
2021/06/04 17:18:49;;;;;;;9.85;4.70;;;;;;;25.77;29.42;100902.61;1615519;86;25774;-54
2021/06/04 17:21:17;;;;;;;11.80;5.03;;;;;;;25.65;29.73;100915.67;1628165;86;26074;-54
2021/06/04 17:23:44;;;;;;;7.05;4.55;;;;;;;25.51;29.97;100912.92;1620970;86;25864;-54
2021/06/04 17:26:12;;;;;;;6.65;4.58;;;;;;;25.38;30.22;100907.59;1631262;86;27415;-54
2021/06/04 17:28:39;;;;;;;8.43;5.10;;;;;;;25.24;30.38;100909.73;1623076;85;25820;-54
2021/06/04 17:31:09;;;;;;;7.80;4.37;;;;;;;25.12;30.60;100915.06;1640701;85;25757;-53
2021/06/04 17:33:37;;;;;;;5.15;4.45;;;;;;;24.97;30.59;100915.63;1635933;85;25951;-53